createdAt,value
2022-11-22T00:01:00.329Z,0.30
2022-11-22T00:03:28.506Z,0.30
2022-11-22T00:05:58.382Z,0.30
2022-11-22T00:08:26.525Z,0.30
2022-11-22T00:10:54.647Z,0.30
2022-11-22T00:13:22.820Z,0.30
2022-11-22T00:16:00.489Z,0.30
2022-11-22T00:18:28.819Z,0.30
2022-11-22T00:20:58.425Z,0.30
2022-11-22T00:23:26.538Z,0.40
2022-11-22T00:25:54.708Z,0.30
2022-11-22T00:28:22.929Z,0.30
2022-11-22T00:30:51.152Z,0.30
2022-11-22T00:33:19.292Z,0.20
2022-11-22T00:35:47.719Z,0.20
2022-11-22T00:38:17.260Z,0.20
2022-11-22T00:40:45.435Z,0.20
2022-11-22T00:43:13.604Z,0.30
2022-11-22T00:45:42.765Z,0.20
2022-11-22T00:48:11.266Z,0.30
2022-11-22T00:50:39.982Z,0.30
2022-11-22T00:53:08.192Z,0.30
2022-11-22T00:55:37.843Z,0.30
2022-11-22T00:58:05.951Z,0.20
2022-11-22T01:00:34.263Z,0.20
2022-11-22T01:03:02.403Z,0.20
2022-11-22T01:05:30.495Z,0.20
2022-11-22T01:07:58.653Z,0.30
2022-11-22T01:10:26.870Z,0.20
2022-11-22T01:12:58.000Z,0.20
2022-11-22T01:15:26.660Z,0.20
2022-11-22T01:17:54.777Z,0.20
2022-11-22T01:20:23.075Z,0.20
2022-11-22T01:22:51.228Z,0.20
2022-11-22T01:25:19.485Z,0.20
2022-11-22T01:27:47.867Z,0.20
2022-11-22T01:30:17.862Z,0.10
2022-11-22T01:32:46.158Z,0.10
2022-11-22T01:35:14.227Z,0.10
2022-11-22T01:37:42.262Z,0.20
2022-11-22T01:40:12.229Z,0.20
2022-11-22T01:42:51.318Z,0.20
2022-11-22T01:45:41.987Z,0.10
2022-11-22T01:48:33.671Z,0.10
2022-11-22T01:51:06.073Z,0.10
2022-11-22T01:53:38.064Z,0.10
2022-11-22T01:56:10.209Z,0.10
2022-11-22T01:58:40.892Z,0.10
2022-11-22T02:01:10.350Z,0.10
2022-11-22T02:03:41.072Z,0.10
2022-11-22T02:06:09.295Z,0.00
2022-11-22T02:08:41.616Z,0.00
2022-11-22T02:11:11.588Z,0.00
2022-11-22T02:13:43.247Z,0.00
2022-11-22T02:16:13.297Z,0.00
2022-11-22T02:18:41.418Z,0.10
2022-11-22T02:21:09.794Z,0.00
2022-11-22T02:23:52.024Z,0.10
2022-11-22T02:26:22.582Z,0.10
2022-11-22T02:28:52.376Z,0.10
2022-11-22T02:31:38.942Z,0.10
2022-11-22T02:34:07.122Z,0.10
2022-11-22T02:36:39.631Z,0.10
2022-11-22T02:39:09.453Z,0.00
2022-11-22T02:41:39.470Z,0.00
2022-11-22T02:44:10.737Z,0.10
2022-11-22T02:46:47.794Z,0.10
2022-11-22T02:49:18.477Z,0.10
2022-11-22T02:51:47.265Z,0.10
2022-11-22T02:54:15.583Z,0.10
2022-11-22T02:56:45.162Z,0.00
2022-11-22T02:59:13.210Z,0.00
2022-11-22T03:01:41.554Z,0.00
2022-11-22T03:04:09.595Z,0.00
2022-11-22T03:06:37.636Z,0.00
2022-11-22T03:09:05.734Z,0.00
2022-11-22T03:11:33.855Z,0.00
2022-11-22T03:14:03.413Z,0.00
2022-11-22T03:16:31.940Z,0.00
2022-11-22T03:19:00.044Z,0.00
2022-11-22T03:21:28.090Z,0.00
2022-11-22T03:23:56.304Z,0.00
2022-11-22T03:26:25.133Z,0.10
2022-11-22T03:28:53.265Z,0.00
2022-11-22T03:31:22.703Z,0.10
2022-11-22T03:33:50.777Z,0.10
2022-11-22T03:36:18.777Z,0.10
2022-11-22T03:38:46.849Z,0.10
2022-11-22T03:41:14.972Z,0.10
2022-11-22T03:43:43.015Z,0.10
2022-11-22T03:46:15.648Z,0.10
2022-11-22T03:48:45.072Z,0.00
2022-11-22T03:51:13.536Z,0.00
2022-11-22T03:53:41.620Z,0.10
2022-11-22T03:56:09.714Z,0.10
2022-11-22T03:58:37.726Z,0.10
2022-11-22T04:01:05.811Z,0.10
2022-11-22T04:03:33.916Z,0.10
2022-11-22T04:06:03.363Z,0.10
2022-11-22T04:08:31.432Z,0.20
2022-11-22T04:10:59.485Z,0.20
2022-11-22T04:13:47.548Z,0.20
2022-11-22T04:16:14.609Z,0.20
2022-11-22T04:18:42.859Z,0.20
2022-11-22T04:21:29.661Z,0.20
2022-11-22T04:24:15.276Z,0.20
2022-11-22T04:26:43.297Z,0.20
2022-11-22T04:29:11.347Z,0.20
2022-11-22T04:31:56.792Z,0.20
2022-11-22T04:34:24.993Z,0.30
2022-11-22T04:36:54.530Z,0.30
2022-11-22T04:39:23.305Z,0.30
2022-11-22T04:42:13.800Z,0.20
2022-11-22T04:44:41.396Z,0.30
2022-11-22T04:47:10.041Z,0.30
2022-11-22T04:49:38.269Z,0.30
2022-11-22T04:52:24.957Z,0.30
2022-11-22T04:54:52.995Z,0.30
2022-11-22T04:57:21.028Z,0.30
2022-11-22T04:59:49.070Z,0.30
2022-11-22T05:02:17.087Z,0.30
2022-11-22T05:04:49.281Z,0.30
2022-11-22T05:07:20.286Z,0.30
2022-11-22T05:09:48.412Z,0.30
2022-11-22T05:12:16.448Z,0.40
2022-11-22T05:14:44.519Z,0.30
2022-11-22T05:17:13.589Z,0.30
2022-11-22T05:19:49.005Z,0.30
2022-11-22T05:22:38.886Z,0.20
2022-11-22T05:25:06.405Z,0.20
2022-11-22T05:27:34.390Z,0.20
2022-11-22T05:30:02.390Z,0.30
2022-11-22T05:32:31.529Z,0.40
2022-11-22T05:34:59.765Z,0.30
2022-11-22T05:37:29.335Z,0.30
2022-11-22T05:39:57.347Z,0.40
2022-11-22T05:42:25.703Z,0.40
2022-11-22T05:44:54.045Z,0.40
2022-11-22T05:47:22.058Z,0.40
2022-11-22T05:49:50.115Z,0.40
2022-11-22T05:52:18.213Z,0.40
2022-11-22T05:54:47.688Z,0.40
2022-11-22T05:57:15.724Z,0.40
2022-11-22T05:59:44.432Z,0.40
2022-11-22T06:02:15.533Z,0.40
2022-11-22T06:04:44.272Z,0.50
2022-11-22T06:07:12.497Z,0.50
2022-11-22T06:09:40.730Z,0.50
2022-11-22T06:12:10.359Z,0.50
2022-11-22T06:14:42.966Z,0.50
2022-11-22T06:17:11.401Z,0.50
2022-11-22T06:19:39.398Z,0.60
2022-11-22T06:22:07.533Z,0.50
2022-11-22T06:24:35.643Z,0.50
2022-11-22T06:27:03.655Z,0.60
2022-11-22T06:29:33.320Z,0.60
2022-11-22T06:32:03.777Z,0.60
2022-11-22T06:34:32.380Z,0.60
2022-11-22T06:37:00.410Z,0.60
2022-11-22T06:39:28.658Z,0.60
2022-11-22T06:41:57.399Z,0.60
2022-11-22T06:44:25.425Z,0.60
2022-11-22T06:46:54.902Z,0.70
2022-11-22T06:49:23.016Z,0.70
2022-11-22T06:51:51.703Z,0.70
2022-11-22T06:54:20.168Z,0.70
2022-11-22T06:56:48.338Z,0.70
2022-11-22T06:59:16.354Z,0.80
2022-11-22T07:01:44.639Z,0.70
2022-11-22T07:04:14.045Z,0.70
2022-11-22T07:06:44.187Z,0.80
2022-11-22T07:09:12.767Z,0.80
2022-11-22T07:11:41.588Z,0.80
2022-11-22T07:14:09.773Z,0.80
2022-11-22T07:16:38.815Z,0.80
2022-11-22T07:19:08.002Z,0.90
2022-11-22T07:21:38.281Z,0.80
2022-11-22T07:24:07.786Z,0.90
2022-11-22T07:26:35.842Z,0.90
2022-11-22T07:29:04.069Z,0.90
2022-11-22T07:31:32.160Z,1.00
2022-11-22T07:34:00.971Z,1.00
2022-11-22T07:36:30.384Z,1.00
2022-11-22T07:38:59.876Z,1.00
2022-11-22T07:41:27.909Z,1.00
2022-11-22T07:43:55.952Z,1.00
2022-11-22T07:46:26.325Z,1.10
2022-11-22T07:48:54.476Z,1.10
2022-11-22T07:51:22.749Z,1.00
2022-11-22T07:53:51.148Z,1.10
2022-11-22T07:56:20.594Z,1.10
2022-11-22T07:58:48.632Z,1.10
2022-11-22T08:01:18.872Z,1.10
2022-11-22T08:03:47.879Z,1.20
2022-11-22T08:06:16.664Z,1.20
2022-11-22T08:08:45.023Z,1.20
2022-11-22T08:11:13.681Z,1.20
2022-11-22T08:13:44.508Z,1.30
2022-11-22T08:16:16.219Z,1.30
2022-11-22T08:18:48.592Z,1.30
2022-11-22T08:21:18.263Z,1.40
2022-11-22T08:23:47.551Z,1.30
2022-11-22T08:26:17.456Z,1.30
2022-11-22T08:28:46.856Z,1.40
2022-11-22T08:31:16.737Z,1.40
2022-11-22T08:33:44.801Z,1.40
2022-11-22T08:36:13.178Z,1.40
2022-11-22T08:38:41.231Z,1.40
2022-11-22T08:41:09.636Z,1.40
2022-11-22T08:43:37.752Z,1.50
2022-11-22T08:46:07.845Z,1.50
2022-11-22T08:48:38.244Z,1.50
2022-11-22T08:51:08.591Z,1.50
2022-11-22T08:53:38.457Z,1.50
2022-11-22T08:56:09.642Z,1.50
2022-11-22T08:58:38.224Z,1.60
2022-11-22T09:01:08.536Z,1.60
2022-11-22T09:03:37.407Z,1.60
2022-11-22T09:09:15.081Z,1.70
2022-11-22T09:11:43.748Z,1.70
2022-11-22T09:14:11.773Z,1.70
2022-11-22T09:16:41.308Z,1.70
2022-11-22T09:19:09.759Z,1.70
2022-11-22T09:21:37.907Z,1.80
2022-11-22T09:24:06.899Z,1.80
2022-11-22T09:26:34.959Z,1.80
2022-11-22T09:29:03.056Z,1.80
2022-11-22T09:31:32.833Z,1.80
2022-11-22T09:34:02.609Z,1.90
2022-11-22T09:36:30.931Z,1.90
2022-11-22T09:38:59.513Z,1.90
2022-11-22T09:42:01.106Z,1.90
2022-11-22T09:44:39.346Z,1.90
2022-11-22T09:47:16.351Z,2.00
2022-11-22T09:49:57.829Z,2.00
2022-11-22T09:52:31.493Z,2.00
2022-11-22T09:55:02.937Z,2.00
2022-11-22T09:57:37.160Z,2.00
2022-11-22T10:00:08.935Z,2.00
2022-11-22T10:02:59.478Z,2.00
2022-11-22T10:05:34.715Z,2.10
2022-11-22T10:08:08.288Z,2.10
2022-11-22T10:10:42.898Z,2.20
2022-11-22T10:13:16.078Z,2.20
2022-11-22T10:15:51.222Z,2.20
2022-11-22T10:18:23.661Z,2.30
2022-11-22T10:20:54.476Z,2.30
2022-11-22T10:23:24.875Z,2.30
2022-11-22T10:25:58.842Z,2.30
2022-11-22T10:28:34.781Z,2.30
2022-11-22T10:31:08.816Z,2.40
2022-11-22T10:33:44.366Z,2.40
2022-11-22T10:36:27.811Z,2.50
2022-11-22T10:39:26.994Z,2.50
2022-11-22T10:42:18.077Z,2.50
2022-11-22T10:44:55.555Z,2.50
2022-11-22T10:47:43.937Z,2.50
2022-11-22T10:50:17.763Z,2.60
2022-11-22T10:52:57.815Z,2.60
2022-11-22T10:55:42.441Z,2.60
2022-11-22T10:58:21.542Z,2.60
2022-11-22T11:00:54.982Z,2.60
2022-11-22T11:03:28.410Z,2.60
2022-11-22T11:09:47.720Z,2.70
2022-11-22T11:11:46.541Z,2.80
2022-11-22T11:14:25.663Z,2.80
2022-11-22T11:16:54.629Z,2.80
2022-11-22T11:19:26.113Z,2.80
2022-11-22T11:22:01.731Z,2.90
2022-11-22T11:24:32.598Z,2.90
2022-11-22T11:27:02.041Z,2.90
2022-11-22T11:29:43.540Z,3.00
2022-11-22T11:32:13.707Z,3.00
2022-11-22T11:34:45.388Z,3.10
2022-11-22T11:37:23.777Z,3.10
2022-11-22T11:39:53.433Z,3.20
2022-11-22T11:42:24.634Z,3.20
2022-11-22T11:44:52.624Z,3.20
2022-11-22T11:47:31.970Z,3.20
2022-11-22T11:50:00.206Z,3.30
2022-11-22T11:52:29.836Z,3.30
2022-11-22T11:55:01.681Z,3.30
2022-11-22T11:57:31.892Z,3.20
2022-11-22T12:00:01.886Z,3.30
2022-11-22T12:02:36.918Z,3.20
2022-11-22T12:05:07.037Z,3.20
2022-11-22T12:07:44.259Z,3.20
2022-11-22T12:10:39.214Z,3.20
2022-11-22T12:13:17.408Z,3.30
2022-11-22T12:15:55.893Z,3.30
2022-11-22T12:18:39.803Z,3.30
2022-11-22T12:21:16.914Z,3.20
2022-11-22T12:23:51.922Z,3.30
2022-11-22T12:26:22.013Z,3.30
2022-11-22T12:28:50.685Z,3.20
2022-11-22T12:31:29.385Z,3.20
2022-11-22T12:34:01.650Z,3.20
2022-11-22T12:36:37.574Z,3.20
2022-11-22T12:39:06.584Z,3.20
2022-11-22T12:41:37.552Z,3.20
2022-11-22T12:44:11.748Z,3.20
2022-11-22T12:46:43.905Z,3.20
2022-11-22T12:49:17.913Z,3.20
2022-11-22T12:51:51.577Z,3.20
2022-11-22T12:54:24.375Z,3.20
2022-11-22T12:56:56.722Z,3.20
2022-11-22T12:59:32.978Z,3.20
2022-11-22T13:02:14.396Z,3.20
2022-11-22T13:04:50.669Z,3.20
2022-11-22T13:07:26.691Z,3.20
2022-11-22T13:10:01.678Z,3.10
2022-11-22T13:12:34.358Z,3.10
2022-11-22T13:15:03.526Z,3.10
2022-11-22T13:17:34.941Z,3.10
2022-11-22T13:20:07.943Z,3.10
2022-11-22T13:22:47.298Z,3.10
2022-11-22T13:25:37.262Z,3.20
2022-11-22T13:28:13.666Z,3.10
2022-11-22T13:31:01.907Z,3.20
2022-11-22T13:33:30.003Z,3.10
2022-11-22T13:36:23.703Z,3.10
2022-11-22T13:38:53.381Z,3.20
2022-11-22T13:41:28.922Z,3.20
2022-11-22T13:43:59.664Z,3.20
2022-11-22T13:47:02.377Z,3.20
2022-11-22T13:49:49.395Z,3.20
2022-11-22T13:52:50.276Z,3.10
2022-11-22T13:55:41.587Z,3.10
2022-11-22T13:58:52.672Z,3.10
2022-11-22T14:02:05.239Z,3.10
2022-11-22T14:04:44.792Z,3.10
2022-11-22T14:07:32.987Z,3.10
2022-11-22T14:10:03.259Z,3.10
2022-11-22T14:12:59.876Z,3.10
2022-11-22T14:15:48.698Z,3.10
2022-11-22T14:18:35.947Z,3.10
2022-11-22T14:21:07.686Z,3.10
2022-11-22T14:23:48.640Z,3.10
2022-11-22T14:26:25.314Z,3.10
2022-11-22T14:29:31.774Z,3.10
2022-11-22T14:32:04.147Z,3.10
2022-11-22T14:34:33.824Z,3.10
2022-11-22T14:37:56.765Z,3.00
2022-11-22T14:40:33.620Z,3.10
2022-11-22T14:43:28.999Z,3.00
2022-11-22T14:46:01.512Z,3.00
2022-11-22T14:48:34.728Z,3.00
2022-11-22T14:51:09.267Z,3.00
2022-11-22T14:53:42.106Z,3.00
2022-11-22T14:56:17.225Z,3.00
2022-11-22T14:58:57.788Z,3.00
2022-11-22T15:01:49.211Z,3.00
2022-11-22T15:09:11.674Z,3.00
2022-11-22T15:09:13.086Z,3.00
2022-11-22T15:11:07.717Z,3.00
2022-11-22T15:13:53.005Z,3.00
2022-11-22T15:59:44.167Z,2.80
2022-11-22T16:02:17.024Z,2.80
2022-11-22T16:06:07.120Z,2.80
2022-11-22T16:07:42.456Z,2.80
2022-11-22T16:10:20.264Z,2.80
2022-11-22T16:12:48.734Z,2.80
2022-11-22T16:15:30.489Z,2.80
2022-11-22T16:18:09.394Z,2.80
2022-11-22T16:20:38.625Z,2.80
2022-11-22T16:23:21.625Z,2.80
2022-11-22T16:25:53.882Z,2.80
2022-11-22T16:28:32.080Z,2.80
2022-11-22T16:31:04.290Z,2.80
2022-11-22T16:33:32.810Z,2.90
2022-11-22T16:36:02.282Z,2.90
2022-11-22T16:38:30.627Z,2.80
2022-11-22T16:40:59.958Z,2.80
2022-11-22T16:43:33.293Z,2.80
2022-11-22T16:46:03.031Z,2.80
2022-11-22T16:48:33.179Z,2.80
2022-11-22T16:51:05.393Z,2.80
2022-11-22T16:53:41.754Z,2.70
2022-11-22T16:56:14.368Z,2.80
2022-11-22T16:58:42.357Z,2.80
2022-11-22T17:01:14.927Z,2.80
2022-11-22T17:03:44.385Z,2.80
2022-11-22T17:06:18.327Z,2.70
2022-11-22T17:08:46.741Z,2.70
2022-11-22T17:11:17.169Z,2.80
2022-11-22T17:13:45.463Z,2.80
2022-11-22T17:16:17.653Z,2.80
2022-11-22T17:18:46.174Z,2.80
2022-11-22T17:21:18.931Z,2.80
2022-11-22T17:23:47.273Z,2.80
2022-11-22T17:26:15.236Z,2.80
2022-11-22T17:28:43.219Z,2.80
2022-11-22T17:31:16.048Z,2.80
2022-11-22T17:33:44.065Z,2.80
2022-11-22T17:36:21.965Z,2.80
2022-11-22T17:38:49.933Z,2.80
2022-11-22T17:41:19.122Z,2.80
2022-11-22T17:43:47.261Z,2.80
2022-11-22T17:46:16.619Z,2.80
2022-11-22T17:48:44.628Z,2.80
2022-11-22T17:51:13.881Z,2.90
2022-11-22T17:53:41.858Z,2.80
2022-11-22T17:56:11.802Z,2.80
2022-11-22T17:58:40.191Z,2.90
2022-11-22T18:01:09.556Z,2.80
2022-11-22T18:03:39.636Z,2.90
2022-11-22T18:06:08.470Z,2.90
2022-11-22T18:08:36.962Z,2.80
2022-11-22T18:11:06.029Z,2.90
2022-11-22T18:13:35.804Z,2.80
2022-11-22T18:16:05.436Z,2.80
2022-11-22T18:18:55.796Z,2.80
2022-11-22T18:21:24.350Z,2.90
2022-11-22T18:23:52.448Z,2.80
2022-11-22T18:31:57.180Z,2.90
2022-11-22T18:34:25.372Z,2.90
2022-11-22T18:37:00.890Z,2.90
2022-11-22T18:39:31.869Z,2.90
2022-11-22T18:42:00.151Z,2.90
2022-11-22T18:44:28.153Z,2.90
2022-11-22T18:46:56.305Z,2.90
2022-11-22T18:49:24.426Z,2.90
2022-11-22T18:51:53.842Z,2.90
2022-11-22T18:54:22.809Z,2.90
2022-11-22T18:56:50.933Z,2.90
2022-11-22T18:59:19.476Z,2.90
2022-11-22T19:01:47.526Z,2.90
2022-11-22T19:04:16.212Z,2.90
2022-11-22T19:06:45.096Z,2.90
2022-11-22T19:09:14.763Z,2.90
2022-11-22T19:11:42.710Z,2.90
2022-11-22T19:14:10.703Z,2.90
2022-11-22T19:16:38.672Z,2.90
2022-11-22T19:19:08.143Z,2.90
2022-11-22T19:21:36.117Z,3.00
2022-11-22T19:24:04.243Z,3.00
2022-11-22T19:26:33.598Z,3.00
2022-11-22T19:29:02.710Z,2.90
2022-11-22T19:31:31.501Z,3.00
2022-11-22T19:33:59.944Z,3.00
2022-11-22T19:36:36.409Z,3.00
2022-11-22T19:39:05.931Z,3.00
2022-11-22T19:41:35.576Z,3.00
2022-11-22T19:44:04.072Z,3.00
2022-11-22T19:46:32.060Z,3.00
2022-11-22T19:49:01.303Z,2.90
2022-11-22T19:51:31.020Z,2.90
2022-11-22T19:54:02.096Z,3.00
2022-11-22T19:56:33.742Z,3.00
2022-11-22T19:59:05.871Z,3.00
2022-11-22T20:01:35.686Z,3.00
2022-11-22T20:04:05.862Z,3.00
2022-11-22T20:06:35.588Z,3.00
2022-11-22T20:09:04.950Z,3.10
2022-11-22T20:11:33.131Z,3.00
2022-11-22T20:14:02.686Z,3.10
2022-11-22T20:16:31.707Z,3.00
2022-11-22T20:19:01.021Z,3.00
2022-11-22T20:21:31.408Z,3.00
2022-11-22T20:24:00.537Z,3.00
2022-11-22T20:26:29.373Z,3.00
2022-11-22T20:28:58.741Z,3.00
2022-11-22T20:31:30.198Z,3.00
2022-11-22T20:34:00.454Z,3.00
2022-11-22T20:36:30.539Z,3.00
2022-11-22T20:38:59.069Z,3.00
2022-11-22T20:41:28.659Z,2.90
2022-11-22T20:43:56.881Z,3.00
2022-11-22T20:46:27.742Z,3.00
2022-11-22T20:48:56.636Z,3.00
2022-11-22T20:51:26.270Z,3.00
2022-11-22T20:53:54.827Z,3.00
2022-11-22T20:56:23.195Z,3.00
2022-11-22T20:58:52.400Z,3.00
2022-11-22T21:01:22.309Z,3.00
2022-11-22T21:03:52.349Z,3.00
2022-11-22T21:06:22.857Z,3.00
2022-11-22T21:08:51.031Z,3.00
2022-11-22T21:11:20.749Z,3.00
2022-11-22T21:13:49.748Z,3.00
2022-11-22T21:16:23.933Z,3.00
2022-11-22T21:18:55.403Z,3.00
2022-11-22T21:21:24.330Z,3.00
2022-11-22T21:23:53.765Z,2.90
2022-11-22T21:26:22.680Z,2.90
2022-11-22T21:28:51.003Z,2.90
2022-11-22T21:31:19.789Z,2.90
2022-11-22T21:33:48.567Z,2.90
2022-11-22T21:36:17.902Z,2.90
2022-11-22T21:38:46.276Z,2.90
2022-11-22T21:41:38.906Z,2.90
2022-11-22T21:44:04.508Z,2.90
2022-11-22T21:46:32.505Z,2.80
2022-11-22T21:49:00.886Z,2.90
2022-11-22T21:51:30.234Z,2.80
2022-11-22T21:53:58.889Z,2.80
2022-11-22T21:56:27.221Z,2.80
2022-11-22T21:58:55.377Z,2.80
2022-11-22T22:01:23.673Z,2.80
2022-11-22T22:03:51.797Z,2.80
2022-11-22T22:06:20.134Z,2.80
2022-11-22T22:08:49.569Z,2.80
2022-11-22T22:11:17.704Z,2.80
2022-11-22T22:13:45.708Z,2.80
2022-11-22T22:16:18.754Z,2.90
2022-11-22T22:18:47.239Z,2.80
2022-11-22T22:21:16.386Z,2.80
2022-11-22T22:23:45.535Z,2.80
2022-11-22T22:26:16.616Z,2.90
2022-11-22T22:28:46.058Z,2.80
2022-11-22T22:31:17.223Z,2.80
2022-11-22T22:33:46.656Z,2.80
2022-11-22T22:36:15.326Z,2.80
2022-11-22T22:38:43.413Z,2.80
2022-11-22T22:41:14.337Z,2.80
2022-11-22T22:43:43.782Z,2.70
2022-11-22T22:46:13.811Z,2.80
2022-11-22T22:48:42.488Z,2.70
2022-11-22T22:51:13.879Z,2.70
2022-11-22T22:53:42.434Z,2.70
2022-11-22T22:56:11.342Z,2.70
2022-11-22T22:58:40.906Z,2.70
2022-11-22T23:01:10.197Z,2.70
2022-11-22T23:03:38.212Z,2.70
2022-11-22T23:06:07.746Z,2.60
2022-11-22T23:08:35.856Z,2.70
2022-11-22T23:11:05.510Z,2.70
2022-11-22T23:13:33.688Z,2.60
2022-11-22T23:16:03.415Z,2.70
2022-11-22T23:18:31.463Z,2.60
2022-11-22T23:21:00.470Z,2.60
2022-11-22T23:23:28.952Z,2.60
2022-11-22T23:25:57.338Z,2.70
2022-11-22T23:28:25.332Z,2.60
2022-11-22T23:30:53.497Z,2.60
2022-11-22T23:33:22.954Z,2.60
2022-11-22T23:35:50.971Z,2.60
2022-11-22T23:38:18.982Z,2.60
2022-11-22T23:40:53.937Z,2.60
2022-11-22T23:43:21.961Z,2.60
2022-11-22T23:45:49.991Z,2.60
2022-11-22T23:48:18.193Z,2.60
2022-11-22T23:50:47.602Z,2.60
2022-11-22T23:53:15.640Z,2.60
2022-11-22T23:55:43.678Z,2.60
2022-11-22T23:58:11.885Z,2.60
